Playa Del Carmen, ROO, Mexico
Current Conditions -  °F | °C
As of 11:42 PM on Wednesday 22 Oct 2014 (Local Time) from MMCZ Reporting Station
Overcast Overcast  
Wind Chill: 72°   Ceiling: 1500
Heat Index: 72°   Visibility: 7mi
Dew Point: 72°   Wind: 0mph
Humidity: 100%   Direction: NA
Pressure: 29.79"   Gusts: NA
Location:  20.62°N, 87.07°W
Report Text: MMCZ 230442Z 00000KT 7SM BKN015 BKN080 OVC250 22/22 A2979 RMK 60025 8/477 RTS
Loading
Personal Weather Stations






























Interactive Weather Map
Tropical Storm Tracking
New forecast layout! Learn more

10-Day Weather Forecast

Advertisements
Track Severe Weather on mobile